createdAt,value
2022-11-12T00:04:10.259Z,100.00
2022-11-12T00:09:30.319Z,100.00
2022-11-12T00:14:50.729Z,100.00
2022-11-12T00:20:11.918Z,100.00
2022-11-12T00:25:32.420Z,100.00
2022-11-12T00:30:52.770Z,100.00
2022-11-12T00:36:13.292Z,100.00
2022-11-12T00:41:33.359Z,100.00
2022-11-12T00:46:53.650Z,100.00
2022-11-12T00:52:13.960Z,100.00
2022-11-12T00:57:34.340Z,100.00
2022-11-12T01:02:55.414Z,100.00
2022-11-12T01:08:16.320Z,100.00
2022-11-12T01:13:42.863Z,100.00
2022-11-12T01:19:07.757Z,100.00
2022-11-12T01:24:27.915Z,100.00
2022-11-12T01:29:48.273Z,100.00
2022-11-12T01:35:08.837Z,100.00
2022-11-12T01:40:29.142Z,100.00
2022-11-12T01:45:51.148Z,100.00
2022-11-12T01:51:12.280Z,100.00
2022-11-12T01:56:32.939Z,100.00
2022-11-12T02:01:53.266Z,100.00
2022-11-12T02:07:13.685Z,100.00
2022-11-12T02:12:53.074Z,100.00
2022-11-12T02:18:13.352Z,100.00
2022-11-12T02:23:33.828Z,100.00
2022-11-12T02:28:54.202Z,100.00
2022-11-12T02:34:14.492Z,100.00
2022-11-12T02:39:35.037Z,100.00
2022-11-12T02:44:55.200Z,100.00
2022-11-12T02:50:15.772Z,100.00
2022-11-12T02:55:35.818Z,100.00
2022-11-12T03:00:56.993Z,100.00
2022-11-12T03:06:17.389Z,100.00
2022-11-12T03:11:37.585Z,100.00
2022-11-12T03:16:57.947Z,100.00
2022-11-12T03:22:18.428Z,100.00
2022-11-12T03:27:38.618Z,100.00
2022-11-12T03:32:58.930Z,100.00
2022-11-12T03:38:19.258Z,100.00
2022-11-12T03:43:39.765Z,100.00
2022-11-12T03:49:02.037Z,100.00
2022-11-12T03:54:22.427Z,100.00
2022-11-12T03:59:42.612Z,100.00
2022-11-12T04:05:21.998Z,100.00
2022-11-12T04:10:42.535Z,100.00
2022-11-12T04:16:29.534Z,100.00
2022-11-12T04:21:51.439Z,100.00
2022-11-12T04:27:15.788Z,100.00
2022-11-12T04:32:55.430Z,100.00
2022-11-12T04:38:15.317Z,100.00
2022-11-12T04:43:54.116Z,100.00
2022-11-12T04:49:14.739Z,100.00
2022-11-12T04:54:35.108Z,100.00
2022-11-12T04:59:55.224Z,100.00
2022-11-12T05:05:15.588Z,100.00
2022-11-12T05:10:35.887Z,100.00
2022-11-12T05:15:56.268Z,100.00
2022-11-12T05:21:39.236Z,100.00
2022-11-12T05:27:03.206Z,100.00
2022-11-12T05:32:23.557Z,100.00
2022-11-12T05:37:44.121Z,100.00
2022-11-12T05:43:04.585Z,100.00
2022-11-12T05:48:24.950Z,100.00
2022-11-12T05:53:45.297Z,100.00
2022-11-12T05:59:07.447Z,100.00
2022-11-12T06:04:27.880Z,100.00
2022-11-12T06:09:47.959Z,100.00
2022-11-12T06:15:08.388Z,100.00
2022-11-12T06:20:28.351Z,100.00
2022-11-12T06:25:48.590Z,100.00
2022-11-12T06:31:09.060Z,100.00
2022-11-12T06:36:29.310Z,100.00
2022-11-12T06:41:49.759Z,100.00
2022-11-12T06:47:10.912Z,100.00
2022-11-12T06:52:30.911Z,100.00
2022-11-12T06:57:54.265Z,100.00
2022-11-12T07:03:15.084Z,100.00
2022-11-12T07:08:36.723Z,100.00
2022-11-12T07:13:56.929Z,100.00
2022-11-12T07:19:17.318Z,100.00
2022-11-12T07:24:37.560Z,100.00
2022-11-12T07:29:58.254Z,100.00
2022-11-12T07:35:18.201Z,100.00
2022-11-12T07:40:38.586Z,100.00
2022-11-12T07:46:10.741Z,100.00
2022-11-12T07:51:31.417Z,100.00
2022-11-12T07:56:52.322Z,100.00
2022-11-12T08:02:12.274Z,100.00
2022-11-12T08:07:32.724Z,100.00
2022-11-12T08:12:56.340Z,100.00
2022-11-12T08:18:17.719Z,100.00
2022-11-12T08:23:37.979Z,100.00
2022-11-12T08:28:58.330Z,100.00
2022-11-12T08:34:22.550Z,100.00
2022-11-12T08:39:42.920Z,100.00
2022-11-12T08:45:03.335Z,100.00
2022-11-12T08:50:23.636Z,100.00
2022-11-12T08:55:44.601Z,100.00
2022-11-12T09:01:09.462Z,100.00
2022-11-12T09:06:29.509Z,100.00
2022-11-12T09:11:49.931Z,100.00
2022-11-12T09:17:12.061Z,97.74
2022-11-12T09:22:33.559Z,98.75
2022-11-12T09:27:54.512Z,95.00
2022-11-12T09:33:19.416Z,92.69
2022-11-12T09:38:40.342Z,95.71
2022-11-12T09:44:04.688Z,95.38
2022-11-12T09:49:32.650Z,93.51
2022-11-12T09:55:06.360Z,89.01
2022-11-12T10:00:27.127Z,87.19
2022-11-12T10:05:47.393Z,86.91
2022-11-12T10:11:13.880Z,84.11
2022-11-12T10:16:43.400Z,83.75
2022-11-12T10:22:34.350Z,80.76
2022-11-12T10:27:56.210Z,80.64
2022-11-12T10:33:16.757Z,78.77
2022-11-12T10:38:38.451Z,74.48
2022-11-12T10:44:03.851Z,69.53
2022-11-12T10:49:25.383Z,61.54
2022-11-12T10:54:52.331Z,62.93
2022-11-12T11:00:20.726Z,57.80
2022-11-12T11:05:54.800Z,52.80
2022-11-12T11:11:31.498Z,53.15
2022-11-12T11:17:08.788Z,51.96
2022-11-12T11:22:42.077Z,49.33
2022-11-12T11:28:16.308Z,47.48
2022-11-12T11:33:58.833Z,49.92
2022-11-12T11:39:51.240Z,55.52
2022-11-12T11:45:18.276Z,54.96
2022-11-12T11:50:57.666Z,48.94
2022-11-12T11:56:27.351Z,46.89
2022-11-12T12:02:25.560Z,42.83
2022-11-12T12:08:04.711Z,48.11
2022-11-12T12:14:01.739Z,50.80
2022-11-12T12:19:38.152Z,52.56
2022-11-12T12:25:24.968Z,55.62
2022-11-12T12:30:49.460Z,51.44
2022-11-12T12:36:15.614Z,52.32
2022-11-12T12:41:55.364Z,52.40
2022-11-12T12:47:18.918Z,53.42
2022-11-12T12:53:02.310Z,54.21
2022-11-12T12:58:40.951Z,53.98
2022-11-12T13:04:08.613Z,52.51
2022-11-12T13:09:29.149Z,54.63
2022-11-12T13:15:09.917Z,53.81
2022-11-12T13:20:35.790Z,54.82
2022-11-12T13:26:34.435Z,55.93
2022-11-12T13:32:34.041Z,56.95
2022-11-12T13:38:03.451Z,56.76
2022-11-12T13:43:42.754Z,57.99
2022-11-12T13:49:10.337Z,56.89
2022-11-12T13:54:32.686Z,56.59
2022-11-12T14:00:28.948Z,59.14
2022-11-12T14:05:50.921Z,58.99
2022-11-12T14:11:26.356Z,60.58
2022-11-12T14:17:18.132Z,61.70
2022-11-12T14:22:46.620Z,64.43
2022-11-12T14:28:25.756Z,67.09
2022-11-12T14:33:46.342Z,66.62
2022-11-12T14:39:07.318Z,69.37
2022-11-12T14:44:36.630Z,72.28
2022-11-12T14:49:57.856Z,75.11
2022-11-12T14:55:25.022Z,77.74
2022-11-12T15:00:47.683Z,78.62
2022-11-12T15:06:11.159Z,76.48
2022-11-12T15:11:45.044Z,78.61
2022-11-12T15:17:06.085Z,78.66
2022-11-12T15:22:26.474Z,78.52
2022-11-12T15:27:46.645Z,81.04
2022-11-12T15:33:27.311Z,81.69
2022-11-12T15:38:53.609Z,83.22
2022-11-12T15:44:14.068Z,84.59
2022-11-12T15:49:35.183Z,84.44
2022-11-12T15:54:55.530Z,85.76
2022-11-12T16:00:45.116Z,85.17
2022-11-12T16:06:09.009Z,85.68
2022-11-12T16:11:35.610Z,86.21
2022-11-12T16:16:56.826Z,87.03
2022-11-12T16:22:17.204Z,86.45
2022-11-12T16:27:39.346Z,86.44
2022-11-12T16:33:01.239Z,86.70
2022-11-12T16:38:21.780Z,89.03
2022-11-12T16:43:41.930Z,88.28
2022-11-12T16:49:03.348Z,88.04
2022-11-12T16:54:23.819Z,86.93
2022-11-12T16:59:45.133Z,87.48
2022-11-12T17:05:07.826Z,87.13
2022-11-12T17:10:27.855Z,87.56
2022-11-12T17:15:48.192Z,88.96
2022-11-12T17:21:14.639Z,90.06
2022-11-12T17:26:35.001Z,90.81
2022-11-12T17:31:55.236Z,92.20
2022-11-12T17:37:15.708Z,91.98
2022-11-12T17:42:35.886Z,93.83
2022-11-12T17:47:56.134Z,93.18
2022-11-12T17:53:16.965Z,94.66
2022-11-12T17:58:37.973Z,95.33
2022-11-12T18:03:58.757Z,96.51
2022-11-12T18:09:18.665Z,97.75
2022-11-12T18:14:39.223Z,98.06
2022-11-12T18:19:59.125Z,96.99
2022-11-12T18:25:19.221Z,96.34
2022-11-12T18:30:39.686Z,97.15
2022-11-12T18:36:04.484Z,98.37
2022-11-12T18:41:26.998Z,99.55
2022-11-12T18:46:47.315Z,100.00
2022-11-12T18:52:07.525Z,100.00
2022-11-12T18:57:27.817Z,99.98
2022-11-12T19:02:48.010Z,100.00
2022-11-12T19:08:08.539Z,100.00
2022-11-12T19:13:29.543Z,100.00
2022-11-12T19:18:51.202Z,100.00
2022-11-12T19:24:11.190Z,100.00
2022-11-12T19:29:31.997Z,100.00
2022-11-12T19:34:52.205Z,100.00
2022-11-12T19:40:12.714Z,100.00
2022-11-12T19:45:32.976Z,100.00
2022-11-12T19:50:53.573Z,100.00
2022-11-12T19:56:17.186Z,100.00
2022-11-12T20:01:37.672Z,100.00
2022-11-12T20:06:57.959Z,100.00
2022-11-12T20:12:18.218Z,100.00
2022-11-12T20:17:39.153Z,100.00
2022-11-12T20:22:59.469Z,100.00
2022-11-12T20:28:19.828Z,100.00
2022-11-12T20:33:42.625Z,100.00
2022-11-12T20:39:04.506Z,100.00
2022-11-12T20:44:24.729Z,100.00
2022-11-12T20:49:45.023Z,100.00
2022-11-12T20:55:05.350Z,100.00
2022-11-12T21:00:25.443Z,100.00
2022-11-12T21:05:45.609Z,100.00
2022-11-12T21:11:08.415Z,100.00
2022-11-12T21:16:29.082Z,100.00
2022-11-12T21:21:49.226Z,100.00
2022-11-12T21:27:11.427Z,100.00
2022-11-12T21:32:31.679Z,100.00
2022-11-12T21:37:52.087Z,100.00
2022-11-12T21:43:12.420Z,100.00
2022-11-12T21:48:32.804Z,100.00
2022-11-12T21:54:05.428Z,100.00
2022-11-12T21:59:25.354Z,100.00
2022-11-12T22:04:45.750Z,100.00
2022-11-12T22:10:06.792Z,100.00
2022-11-12T22:15:27.346Z,100.00
2022-11-12T22:21:03.619Z,100.00
2022-11-12T22:26:26.661Z,100.00
2022-11-12T22:31:46.847Z,100.00
2022-11-12T22:37:06.979Z,100.00
2022-11-12T22:42:27.266Z,100.00
2022-11-12T22:47:47.484Z,100.00
2022-11-12T22:53:07.727Z,100.00
2022-11-12T22:58:28.185Z,100.00
2022-11-12T23:03:49.699Z,100.00
2022-11-12T23:09:16.074Z,100.00
2022-11-12T23:14:36.151Z,100.00
2022-11-12T23:19:56.408Z,100.00
2022-11-12T23:25:16.734Z,100.00
2022-11-12T23:30:37.488Z,100.00
2022-11-12T23:36:08.756Z,100.00
2022-11-12T23:41:28.966Z,100.00
2022-11-12T23:46:49.230Z,100.00
2022-11-12T23:52:09.508Z,100.00
2022-11-12T23:57:29.970Z,100.00
